Montezuma, Brazil
Current Conditions -  °F | °C
As of 6:00 PM on Friday 31 Oct 2014 (Local Time) from SBQV Reporting Station
Few Clouds Few Clouds  
Wind Chill: 77°   Ceiling: Unl
Heat Index: 79°   Visibility: 6mi
Dew Point: 64°   Wind: 13mph
Humidity: 65%   Direction: 100°E
Pressure: 30.06"   Gusts: NA
Location:  15.17°S, 42.5°W
Report Text: SBQV 312000Z 10011KT 9999 FEW018 25/18 Q1018
Loading
Personal Weather Stations






























Interactive Weather Map
Tropical Storm Tracking
New forecast layout! Learn more

10-Day Weather Forecast

Advertisements
Track Severe Weather on mobile